Time;durP1;ratioP1;P1;durP2;ratioP2;P2;SDS_P1;SDS_P2;PMS_P1;PMS_P2;Temp;Humidity;BMP_temperature;BMP_pressure;BME280_temperature;BME280_humidity;BME280_pressure;Samples;Min_cycle;Max_cycle;Signal;HPM_P1;HPM_P2
2022/04/11 00:00:25;;;;;;;7.03;2.45;;;1.50;99.90;;;;;;5054795;28;20040;-67
2022/04/11 00:02:51;;;;;;;7.93;2.92;;;1.40;99.90;;;;;;5054689;28;20032;-67
2022/04/11 00:05:16;;;;;;;6.38;2.35;;;1.40;99.90;;;;;;5058509;28;20045;-67
2022/04/11 00:07:42;;;;;;;8.00;2.53;;;1.50;99.90;;;;;;5057408;28;20041;-67
2022/04/11 00:10:08;;;;;;;6.97;2.53;;;1.50;99.90;;;;;;5057421;28;20028;-67
2022/04/11 00:12:36;;;;;;;7.53;2.58;;;1.40;99.90;;;;;;5052002;28;20076;-67
2022/04/11 00:15:06;;;;;;;7.68;2.30;;;1.40;99.90;;;;;;5058133;28;20021;-67
2022/04/11 00:17:32;;;;;;;7.32;2.33;;;1.30;99.90;;;;;;5052317;28;20029;-67
2022/04/11 00:19:57;;;;;;;6.15;2.20;;;1.30;99.90;;;;;;5054534;28;20423;-67
2022/04/11 00:22:23;;;;;;;7.15;2.30;;;1.30;99.90;;;;;;5053669;28;20043;-67
2022/04/11 00:24:50;;;;;;;7.53;2.33;;;1.20;99.90;;;;;;5051895;28;20652;-67
2022/04/11 00:27:16;;;;;;;5.97;2.40;;;1.20;99.90;;;;;;5053272;28;20182;-68
2022/04/11 00:29:42;;;;;;;9.13;2.60;;;1.20;99.90;;;;;;5048862;28;20653;-67
2022/04/11 00:32:08;;;;;;;9.60;3.08;;;1.10;99.90;;;;;;5055089;28;20539;-67
2022/04/11 00:34:33;;;;;;;8.68;3.00;;;1.10;99.90;;;;;;5048550;28;20043;-68
2022/04/11 00:36:59;;;;;;;9.10;3.38;;;1.10;99.90;;;;;;5054531;28;20119;-68
2022/04/11 00:39:24;;;;;;;8.18;3.45;;;1.10;99.90;;;;;;5050798;28;20060;-67
2022/04/11 00:41:50;;;;;;;8.35;3.28;;;1.10;99.90;;;;;;5054087;28;20058;-67
2022/04/11 00:44:16;;;;;;;9.25;3.95;;;1.10;99.90;;;;;;5058840;28;20060;-67
2022/04/11 00:46:42;;;;;;;9.60;3.80;;;1.20;99.90;;;;;;5050313;28;20036;-67
2022/04/11 00:49:08;;;;;;;8.50;3.47;;;1.10;99.90;;;;;;5057625;28;20278;-68
2022/04/11 00:51:34;;;;;;;10.38;3.65;;;1.10;99.90;;;;;;5056067;28;20017;-67
2022/04/11 00:54:01;;;;;;;10.82;4.18;;;1.10;99.90;;;;;;5059432;28;20024;-67
2022/04/11 00:56:29;;;;;;;10.00;3.90;;;1.10;99.90;;;;;;5049899;28;20036;-67
2022/04/11 00:58:57;;;;;;;8.95;3.83;;;1.00;99.90;;;;;;5060521;28;20766;-67
2022/04/11 01:01:22;;;;;;;10.00;4.30;;;1.00;99.90;;;;;;5057224;28;20017;-67
2022/04/11 01:03:48;;;;;;;8.45;3.80;;;1.00;99.90;;;;;;5053106;28;20030;-67
2022/04/11 01:06:14;;;;;;;7.53;3.47;;;1.00;99.90;;;;;;5054165;28;20040;-67
2022/04/11 01:08:39;;;;;;;8.27;3.08;;;1.00;99.90;;;;;;5058372;28;20067;-67
2022/04/11 01:11:06;;;;;;;10.02;3.67;;;1.10;99.90;;;;;;5058185;28;20412;-67
2022/04/11 01:13:32;;;;;;;12.40;4.13;;;1.20;99.90;;;;;;5056040;28;20033;-67
2022/04/11 01:16:07;;;;;;;9.40;4.03;;;1.20;99.90;;;;;;5052950;28;20378;-67
2022/04/11 01:18:37;;;;;;;10.60;4.30;;;1.20;99.90;;;;;;5053712;28;20083;-67
2022/04/11 01:21:04;;;;;;;9.43;4.15;;;1.20;99.90;;;;;;5054179;28;20621;-68
2022/04/11 01:23:29;;;;;;;9.48;4.28;;;1.20;99.90;;;;;;5055298;28;20028;-67
2022/04/11 01:25:56;;;;;;;10.95;3.85;;;1.10;99.90;;;;;;5051715;28;20075;-67
2022/04/11 01:28:23;;;;;;;8.98;3.72;;;1.10;99.90;;;;;;5057242;28;20017;-67
2022/04/11 01:30:53;;;;;;;10.38;4.40;;;1.10;99.90;;;;;;5054146;28;20021;-67
2022/04/11 01:33:28;;;;;;;7.95;3.50;;;1.10;99.90;;;;;;5057668;28;20025;-68
2022/04/11 01:35:53;;;;;;;10.13;3.38;;;1.00;99.90;;;;;;5050972;28;20047;-67
2022/04/11 01:38:19;;;;;;;8.60;3.72;;;1.00;99.90;;;;;;5049867;28;20914;-67
2022/04/11 01:40:49;;;;;;;8.30;3.22;;;1.00;99.90;;;;;;5050667;28;20092;-67
2022/04/11 01:43:15;;;;;;;9.93;3.55;;;1.00;99.90;;;;;;5047650;28;20035;-67
2022/04/11 01:45:41;;;;;;;7.75;3.40;;;0.90;99.90;;;;;;5049267;28;20060;-68
2022/04/11 01:48:07;;;;;;;9.05;3.38;;;0.90;99.90;;;;;;5046265;28;20048;-67
2022/04/11 01:50:32;;;;;;;8.10;3.38;;;0.90;99.90;;;;;;5051739;28;20033;-67
2022/04/11 01:53:12;;;;;;;6.72;2.95;;;0.80;99.90;;;;;;5047505;28;20035;-67
2022/04/11 01:55:39;;;;;;;7.30;3.08;;;0.80;99.90;;;;;;5045590;28;20126;-67
2022/04/11 01:58:06;;;;;;;7.72;3.35;;;0.80;99.90;;;;;;5054590;28;20020;-67
2022/04/11 02:00:32;;;;;;;9.27;3.38;;;0.80;99.90;;;;;;5050114;28;20098;-67
2022/04/11 02:02:59;;;;;;;8.23;3.45;;;0.80;99.90;;;;;;5052232;28;20025;-67
2022/04/11 02:05:25;;;;;;;8.98;3.50;;;1.00;99.90;;;;;;5052781;28;20047;-67
2022/04/11 02:07:52;;;;;;;8.68;3.90;;;1.00;99.90;;;;;;5051950;28;20039;-67
2022/04/11 02:10:17;;;;;;;11.05;3.63;;;1.10;99.90;;;;;;5033952;28;20028;-67
2022/04/11 02:12:43;;;;;;;8.30;3.70;;;1.10;99.90;;;;;;5044649;28;20066;-67
2022/04/11 02:15:09;;;;;;;7.57;3.45;;;1.00;99.90;;;;;;5054517;28;20113;-67
2022/04/11 02:17:35;;;;;;;10.57;3.60;;;1.00;99.90;;;;;;5052674;28;20040;-67
2022/04/11 02:20:00;;;;;;;8.55;3.80;;;0.90;99.90;;;;;;5051892;28;20031;-67
2022/04/11 02:22:26;;;;;;;8.57;3.70;;;1.00;99.90;;;;;;5052773;28;20185;-68
2022/04/11 02:24:53;;;;;;;11.35;4.18;;;1.00;99.90;;;;;;5047469;28;20397;-67
2022/04/11 02:27:18;;;;;;;10.02;4.38;;;1.00;99.90;;;;;;5056372;28;20080;-67
2022/04/11 02:29:44;;;;;;;8.82;3.45;;;1.00;99.90;;;;;;5050339;28;20063;-65
2022/04/11 02:32:09;;;;;;;7.75;3.60;;;1.00;99.90;;;;;;5037602;28;20108;-65
2022/04/11 02:34:35;;;;;;;8.57;3.80;;;1.00;99.90;;;;;;5046409;28;20139;-66
2022/04/11 02:37:01;;;;;;;10.10;3.92;;;1.00;99.90;;;;;;5050283;28;20029;-66
2022/04/11 02:39:27;;;;;;;10.25;4.00;;;1.00;99.90;;;;;;5049829;28;20039;-66
2022/04/11 02:41:52;;;;;;;13.65;4.40;;;1.10;99.90;;;;;;5053342;28;20024;-66
2022/04/11 02:44:18;;;;;;;8.95;4.10;;;1.10;99.90;;;;;;5048639;28;20069;-66
2022/04/11 02:46:44;;;;;;;13.18;4.32;;;1.10;99.90;;;;;;5052473;28;20039;-66
2022/04/11 02:49:10;;;;;;;8.55;4.20;;;1.10;99.90;;;;;;5052037;28;20059;-66
2022/04/11 02:51:36;;;;;;;9.48;4.80;;;1.10;99.90;;;;;;5054738;28;20060;-66
2022/04/11 02:54:07;;;;;;;11.40;5.60;;;1.20;99.90;;;;;;5055424;28;20120;-66
2022/04/11 02:56:33;;;;;;;10.48;4.95;;;1.10;99.90;;;;;;5051690;28;20040;-66
2022/04/11 02:58:59;;;;;;;10.23;4.53;;;1.10;99.90;;;;;;5054578;28;20053;-66
2022/04/11 03:01:24;;;;;;;10.18;5.38;;;1.10;99.90;;;;;;5047466;28;20083;-67
2022/04/11 03:03:52;;;;;;;9.45;5.07;;;1.20;99.90;;;;;;5055568;28;20056;-66
2022/04/11 03:06:18;;;;;;;9.70;5.03;;;1.10;99.90;;;;;;5054574;28;20059;-66
2022/04/11 03:08:43;;;;;;;8.38;4.60;;;1.10;99.90;;;;;;5055287;28;20075;-66
2022/04/11 03:11:09;;;;;;;9.85;4.72;;;1.10;99.90;;;;;;5046032;28;20117;-66
2022/04/11 03:13:35;;;;;;;11.55;5.00;;;1.00;99.90;;;;;;5052035;28;20048;-66
2022/04/11 03:16:00;;;;;;;9.45;4.60;;;1.00;99.90;;;;;;5045836;28;20033;-66
2022/04/11 03:18:26;;;;;;;9.07;4.03;;;1.00;99.90;;;;;;5056937;28;20088;-66
2022/04/11 03:20:51;;;;;;;10.35;4.53;;;1.00;99.90;;;;;;5048885;28;20116;-66
2022/04/11 03:23:17;;;;;;;10.45;4.43;;;1.00;99.90;;;;;;5048016;28;20025;-66
2022/04/11 03:25:43;;;;;;;12.10;4.63;;;0.90;99.90;;;;;;5051056;28;20076;-67
2022/04/11 03:28:09;;;;;;;9.07;3.95;;;0.90;99.90;;;;;;5054080;28;20037;-66
2022/04/11 03:30:34;;;;;;;9.57;4.30;;;0.90;99.90;;;;;;5049008;28;20028;-67
2022/04/11 03:33:00;;;;;;;9.90;4.13;;;0.90;99.90;;;;;;5051956;28;20021;-67
2022/04/11 03:35:25;;;;;;;9.43;4.00;;;0.90;99.90;;;;;;5046058;28;20040;-67
2022/04/11 03:37:51;;;;;;;7.75;3.60;;;0.90;99.90;;;;;;5048255;28;20508;-67
2022/04/11 03:40:17;;;;;;;8.60;3.60;;;0.90;99.90;;;;;;5052165;28;20060;-66
2022/04/11 03:42:42;;;;;;;8.27;3.63;;;0.80;99.90;;;;;;5051851;28;20052;-67
2022/04/11 03:45:10;;;;;;;10.15;3.90;;;0.80;99.90;;;;;;5053387;28;20147;-67
2022/04/11 03:47:36;;;;;;;9.15;4.03;;;0.80;99.90;;;;;;5055720;28;20498;-67
2022/04/11 03:50:02;;;;;;;9.18;3.97;;;0.90;99.90;;;;;;5048071;28;20124;-67
2022/04/11 03:52:28;;;;;;;11.18;4.25;;;0.90;99.90;;;;;;5054768;28;20025;-67
2022/04/11 03:54:54;;;;;;;7.78;4.00;;;1.00;99.90;;;;;;5047405;28;20032;-67
2022/04/11 03:57:20;;;;;;;7.28;3.85;;;1.00;99.90;;;;;;5055194;28;20029;-67
2022/04/11 03:59:46;;;;;;;10.38;3.80;;;1.00;99.90;;;;;;5049306;28;20055;-66
2022/04/11 04:02:11;;;;;;;9.40;4.10;;;1.10;99.90;;;;;;5053351;28;20047;-67
2022/04/11 04:04:37;;;;;;;9.13;4.13;;;1.10;99.90;;;;;;5053734;28;20045;-67
2022/04/11 04:07:03;;;;;;;11.57;4.68;;;1.20;99.90;;;;;;5054027;28;20021;-67
2022/04/11 04:09:29;;;;;;;8.00;4.00;;;1.20;99.90;;;;;;5048317;28;20029;-67
2022/04/11 04:11:54;;;;;;;8.10;3.88;;;1.20;99.90;;;;;;5047357;28;20095;-66
2022/04/11 04:14:20;;;;;;;10.38;3.53;;;1.30;99.90;;;;;;5059578;28;20028;-67
2022/04/11 04:16:46;;;;;;;8.48;3.97;;;1.30;99.90;;;;;;5058819;28;20048;-67
2022/04/11 04:19:13;;;;;;;9.88;4.05;;;1.30;99.90;;;;;;5059940;28;20376;-67
2022/04/11 04:21:38;;;;;;;8.88;3.80;;;1.40;99.90;;;;;;5057574;28;20025;-67
2022/04/11 04:24:04;;;;;;;9.38;3.45;;;1.40;99.90;;;;;;5062466;28;20086;-67
2022/04/11 04:26:30;;;;;;;8.50;3.40;;;1.50;99.90;;;;;;5063663;28;20066;-67
2022/04/11 04:28:55;;;;;;;8.30;3.90;;;1.50;99.90;;;;;;5067160;28;20028;-67
2022/04/11 04:31:21;;;;;;;9.48;4.47;;;1.50;99.90;;;;;;5068371;28;20050;-67
2022/04/11 04:33:47;;;;;;;10.30;3.85;;;1.60;99.90;;;;;;5062068;28;20045;-69
2022/04/11 04:36:13;;;;;;;7.20;3.35;;;1.60;99.90;;;;;;5066908;28;20060;-68
2022/04/11 04:38:38;;;;;;;10.02;4.45;;;1.60;99.90;;;;;;5059810;28;20110;-68
2022/04/11 04:41:04;;;;;;;8.77;4.25;;;1.70;99.90;;;;;;5065870;28;20017;-68
2022/04/11 04:43:30;;;;;;;8.23;3.90;;;1.70;99.90;;;;;;5059526;28;20056;-68
2022/04/11 04:45:55;;;;;;;9.77;4.85;;;1.70;99.90;;;;;;5067254;28;20108;-68
2022/04/11 04:48:21;;;;;;;10.93;5.22;;;1.80;99.90;;;;;;5071151;28;20029;-68
2022/04/11 04:50:47;;;;;;;8.00;4.60;;;1.90;99.90;;;;;;5069775;28;20039;-68
2022/04/11 04:53:13;;;;;;;10.63;4.97;;;1.90;99.90;;;;;;5066257;28;20088;-68
2022/04/11 04:55:39;;;;;;;9.32;4.70;;;1.90;99.90;;;;;;5069985;28;20039;-69
2022/04/11 04:58:07;;;;;;;11.82;4.60;;;2.00;99.90;;;;;;5064514;28;20033;-69
2022/04/11 05:00:33;;;;;;;11.13;4.97;;;2.00;99.90;;;;;;5065235;28;20032;-68
2022/04/11 05:02:59;;;;;;;9.43;5.35;;;2.10;99.90;;;;;;5069352;28;20048;-69
2022/04/11 05:05:24;;;;;;;11.27;5.55;;;2.10;99.90;;;;;;5074079;28;20048;-68
2022/04/11 05:07:50;;;;;;;10.55;5.30;;;2.20;99.90;;;;;;5065563;28;20024;-69
2022/04/11 05:10:18;;;;;;;9.40;4.50;;;2.20;99.90;;;;;;5067110;28;20059;-69
2022/04/11 05:12:47;;;;;;;10.65;3.58;;;2.20;99.90;;;;;;5068198;28;20408;-69
2022/04/11 05:15:13;;;;;;;8.20;3.90;;;2.30;99.90;;;;;;5062503;28;20040;-69
2022/04/11 05:17:39;;;;;;;7.80;3.45;;;2.30;99.90;;;;;;5064111;28;20040;-69
2022/04/11 05:20:07;;;;;;;8.38;4.00;;;2.40;99.90;;;;;;5065648;28;20155;-69
2022/04/11 05:22:33;;;;;;;7.10;3.70;;;2.40;99.90;;;;;;5062923;28;20025;-69
2022/04/11 05:24:58;;;;;;;7.90;3.22;;;2.50;99.90;;;;;;5062830;28;20055;-69
2022/04/11 05:27:24;;;;;;;11.57;3.58;;;2.60;99.90;;;;;;5068568;28;20070;-69
2022/04/11 05:29:50;;;;;;;8.50;3.65;;;2.60;99.90;;;;;;5064527;28;20028;-69
2022/04/11 05:32:15;;;;;;;9.07;3.90;;;2.60;99.90;;;;;;5040502;28;20127;-69
2022/04/11 05:34:41;;;;;;;8.50;4.05;;;2.60;99.90;;;;;;5065727;28;20032;-69
2022/04/11 05:37:07;;;;;;;10.63;3.83;;;2.70;99.90;;;;;;5063525;28;20025;-69
2022/04/11 05:39:33;;;;;;;8.73;3.75;;;2.80;99.90;;;;;;5067998;28;20036;-70
2022/04/11 05:41:59;;;;;;;7.85;4.00;;;2.80;99.90;;;;;;5067604;28;20033;-70
2022/04/11 05:44:25;;;;;;;10.77;4.03;;;2.80;99.90;;;;;;5059956;28;20049;-69
2022/04/11 05:46:53;;;;;;;7.95;3.10;;;2.80;99.90;;;;;;5068338;28;20032;-69
2022/04/11 05:49:20;;;;;;;7.38;3.45;;;2.80;99.90;;;;;;5050818;28;20032;-69
2022/04/11 05:51:46;;;;;;;11.02;3.65;;;2.90;99.90;;;;;;5069137;28;20033;-69
2022/04/11 05:54:12;;;;;;;10.00;3.60;;;2.90;99.90;;;;;;5067928;28;20031;-69
2022/04/11 05:56:38;;;;;;;10.27;3.85;;;2.90;99.90;;;;;;5073949;28;20034;-69
2022/04/11 05:59:04;;;;;;;11.65;3.70;;;3.00;99.90;;;;;;5066664;28;20026;-69
2022/04/11 06:01:30;;;;;;;8.82;3.30;;;3.00;99.90;;;;;;5059382;28;20044;-69
2022/04/11 06:03:56;;;;;;;8.63;3.47;;;3.00;99.90;;;;;;5055964;28;20035;-69
2022/04/11 06:06:22;;;;;;;6.72;3.42;;;3.00;99.90;;;;;;5055409;28;20105;-69
2022/04/11 06:08:47;;;;;;;9.95;3.60;;;3.10;99.90;;;;;;5053364;28;20052;-69
2022/04/11 06:11:13;;;;;;;11.43;3.95;;;3.10;99.90;;;;;;5053530;28;20051;-69
2022/04/11 06:13:43;;;;;;;8.02;3.30;;;3.20;99.90;;;;;;5066256;28;20170;-70
2022/04/11 06:16:09;;;;;;;8.52;3.67;;;3.30;99.90;;;;;;5058057;28;20022;-68
2022/04/11 06:18:35;;;;;;;7.53;3.45;;;3.30;99.90;;;;;;5059949;28;20031;-69
2022/04/11 06:21:00;;;;;;;9.45;4.00;;;3.40;99.90;;;;;;5059206;28;20404;-69
2022/04/11 06:23:26;;;;;;;9.48;3.83;;;3.50;99.90;;;;;;5061180;28;20031;-68
2022/04/11 06:25:51;;;;;;;10.48;3.80;;;3.60;99.90;;;;;;5047719;28;20049;-68
2022/04/11 06:28:17;;;;;;;7.55;3.47;;;3.70;99.90;;;;;;5050178;28;20047;-68
2022/04/11 06:30:43;;;;;;;8.75;3.75;;;3.70;99.90;;;;;;5037197;28;20040;-69
2022/04/11 06:33:08;;;;;;;10.38;4.18;;;3.80;99.90;;;;;;5049123;28;20029;-69
2022/04/11 06:35:34;;;;;;;9.63;4.00;;;3.80;99.90;;;;;;5054877;28;20036;-70
2022/04/11 06:38:00;;;;;;;10.10;4.47;;;3.90;99.90;;;;;;5050019;28;20127;-68
2022/04/11 06:40:26;;;;;;;11.98;3.88;;;4.00;99.90;;;;;;5067081;28;20032;-68
2022/04/11 06:42:51;;;;;;;8.93;4.13;;;4.10;99.90;;;;;;5070542;28;20046;-69
2022/04/11 06:45:17;;;;;;;8.10;3.60;;;4.20;99.90;;;;;;5044752;28;20063;-68
2022/04/11 06:47:44;;;;;;;10.77;4.22;;;4.30;99.90;;;;;;5056813;28;20037;-68
2022/04/11 06:50:10;;;;;;;9.07;3.80;;;4.30;99.90;;;;;;5062775;28;20032;-68
2022/04/11 06:52:36;;;;;;;9.27;4.25;;;4.30;99.90;;;;;;5061687;28;20016;-68
2022/04/11 06:55:02;;;;;;;13.40;4.75;;;4.30;99.90;;;;;;5061582;28;20043;-68
2022/04/11 06:57:29;;;;;;;10.07;4.03;;;4.30;99.90;;;;;;5069159;28;20115;-69
2022/04/11 06:59:54;;;;;;;10.75;4.05;;;4.40;99.90;;;;;;5064689;28;20020;-68
2022/04/11 07:02:21;;;;;;;9.00;4.10;;;4.40;99.90;;;;;;5059759;28;20168;-68
2022/04/11 07:04:46;;;;;;;11.93;4.63;;;4.40;99.90;;;;;;5065546;28;20463;-68
2022/04/11 07:07:12;;;;;;;11.73;4.88;;;4.40;99.90;;;;;;5065721;28;20388;-69
2022/04/11 07:09:38;;;;;;;8.82;4.53;;;4.50;99.90;;;;;;5047859;28;20032;-69
2022/04/11 07:12:05;;;;;;;11.63;4.40;;;4.70;99.90;;;;;;5048189;28;20110;-68
2022/04/11 07:14:31;;;;;;;10.57;4.75;;;4.80;99.90;;;;;;5066657;28;20059;-81
2022/04/11 07:16:56;;;;;;;9.88;4.60;;;4.90;99.90;;;;;;5023705;28;20025;-81
2022/04/11 07:19:22;;;;;;;12.85;5.15;;;5.00;99.90;;;;;;5066206;28;20068;-69
2022/04/11 07:21:48;;;;;;;12.40;4.35;;;5.00;99.90;;;;;;5058811;28;20029;-70
2022/04/11 07:24:14;;;;;;;10.40;4.80;;;5.00;99.90;;;;;;5057009;28;20021;-67
2022/04/11 07:26:42;;;;;;;7.32;4.05;;;5.10;99.90;;;;;;5054186;28;20029;-68
2022/04/11 07:29:08;;;;;;;9.05;4.25;;;5.30;99.90;;;;;;5054265;28;20119;-66
2022/04/11 07:31:35;;;;;;;12.93;4.90;;;5.30;99.90;;;;;;5060455;28;20025;-67
2022/04/11 07:34:01;;;;;;;8.55;4.45;;;5.30;99.90;;;;;;5055660;28;20114;-66
2022/04/11 07:36:28;;;;;;;11.80;4.72;;;5.40;99.90;;;;;;5073197;28;20139;-66
2022/04/11 07:38:55;;;;;;;11.68;4.97;;;5.60;99.90;;;;;;5060445;28;20029;-66
2022/04/11 07:41:21;;;;;;;10.32;5.07;;;5.70;99.90;;;;;;5070282;28;20068;-67
2022/04/11 07:43:46;;;;;;;10.57;4.68;;;5.80;99.90;;;;;;5058776;28;20068;-66
2022/04/11 07:46:12;;;;;;;8.30;4.85;;;6.00;99.90;;;;;;5057537;28;20037;-66
2022/04/11 07:48:38;;;;;;;10.27;5.13;;;6.10;99.90;;;;;;5063013;28;20104;-66
2022/04/11 07:51:03;;;;;;;10.05;5.00;;;6.30;99.90;;;;;;5063536;28;20029;-65
2022/04/11 07:53:29;;;;;;;12.63;5.55;;;6.30;99.90;;;;;;5056823;28;20029;-66
2022/04/11 07:55:55;;;;;;;12.82;5.43;;;6.60;99.90;;;;;;5066064;28;20031;-66
2022/04/11 07:58:20;;;;;;;12.50;5.85;;;6.70;99.90;;;;;;5077336;28;20452;-66
2022/04/11 08:00:51;;;;;;;11.55;5.75;;;6.90;99.90;;;;;;5067832;28;20025;-66
2022/04/11 08:03:17;;;;;;;12.25;5.90;;;7.00;99.90;;;;;;5061364;28;20162;-66
2022/04/11 08:05:43;;;;;;;11.50;5.80;;;7.20;99.90;;;;;;5063989;28;20525;-66
2022/04/11 08:08:09;;;;;;;11.88;5.85;;;7.40;99.90;;;;;;5061850;28;20033;-66
2022/04/11 08:10:34;;;;;;;12.98;6.03;;;7.50;99.90;;;;;;5060748;28;20369;-66
2022/04/11 08:13:01;;;;;;;14.50;5.93;;;7.50;99.90;;;;;;5060605;28;20053;-66
2022/04/11 08:15:30;;;;;;;13.48;5.55;;;7.40;99.90;;;;;;5062455;28;20025;-66
2022/04/11 08:17:56;;;;;;;12.73;6.00;;;7.50;99.90;;;;;;5064266;28;20028;-66
2022/04/11 08:20:23;;;;;;;11.93;5.72;;;7.70;99.90;;;;;;5062133;28;20080;-66
2022/04/11 08:22:49;;;;;;;12.60;5.93;;;8.00;99.90;;;;;;5063394;28;20075;-67
2022/04/11 08:25:14;;;;;;;11.05;6.22;;;8.20;99.90;;;;;;5061300;28;20446;-66
2022/04/11 08:27:41;;;;;;;10.93;6.18;;;8.50;99.90;;;;;;5061060;28;20083;-66
2022/04/11 08:30:09;;;;;;;15.30;6.25;;;8.30;99.90;;;;;;5063374;28;20014;-66
2022/04/11 08:32:39;;;;;;;12.00;6.32;;;8.70;99.90;;;;;;5046035;28;20488;-66
2022/04/11 08:35:05;;;;;;;10.55;5.78;;;8.90;99.90;;;;;;5062865;28;20055;-66
2022/04/11 08:37:31;;;;;;;12.95;6.38;;;8.90;99.90;;;;;;5062006;28;20063;-66
2022/04/11 08:39:57;;;;;;;11.18;5.80;;;9.40;99.90;;;;;;5063680;28;20447;-66
2022/04/11 08:42:24;;;;;;;11.18;5.78;;;9.90;99.90;;;;;;5059968;28;20025;-66
2022/04/11 08:44:54;;;;;;;9.75;5.47;;;10.20;99.90;;;;;;5056555;28;20060;-66
2022/04/11 08:47:22;;;;;;;12.98;5.47;;;10.80;99.90;;;;;;5043006;28;20029;-67
2022/04/11 08:49:49;;;;;;;11.25;5.90;;;11.90;99.90;;;;;;5042716;28;20037;-66
2022/04/11 08:52:16;;;;;;;11.88;5.22;;;12.30;99.90;;;;;;5048771;28;20031;-66
2022/04/11 08:54:42;;;;;;;10.60;5.35;;;12.60;99.90;;;;;;5062301;28;20090;-66
2022/04/11 08:57:08;;;;;;;12.65;5.43;;;13.10;99.90;;;;;;5062603;28;20020;-66
2022/04/11 08:59:34;;;;;;;12.80;5.35;;;13.40;99.90;;;;;;5062229;28;20033;-67
2022/04/11 09:01:59;;;;;;;12.93;5.75;;;13.90;99.90;;;;;;5048639;28;20033;-67
2022/04/11 09:04:25;;;;;;;10.75;5.05;;;13.50;90.50;;;;;;5041481;28;20034;-66
2022/04/11 09:06:56;;;;;;;10.77;5.38;;;13.40;72.40;;;;;;5052783;28;20120;-66
2022/04/11 09:09:37;;;;;;;8.68;4.60;;;14.50;95.60;;;;;;5063010;28;20041;-67
2022/04/11 09:12:03;;;;;;;9.27;3.88;;;15.60;69.20;;;;;;5061845;28;20041;-67
2022/04/11 09:14:29;;;;;;;10.23;4.63;;;15.80;57.50;;;;;;5062171;28;20043;-67
2022/04/11 09:16:55;;;;;;;10.27;4.03;;;15.80;59.50;;;;;;5060948;28;20025;-67
2022/04/11 09:19:25;;;;;;;9.68;3.83;;;14.90;54.20;;;;;;5054405;28;20052;-67
2022/04/11 09:21:54;;;;;;;8.93;3.60;;;15.20;56.10;;;;;;5061830;28;20017;-67
2022/04/11 09:24:21;;;;;;;10.27;4.43;;;15.90;81.40;;;;;;5039327;28;20379;-67
2022/04/11 09:26:47;;;;;;;8.27;3.10;;;16.30;65.40;;;;;;5051855;28;20546;-66
2022/04/11 09:29:17;;;;;;;8.13;3.00;;;15.50;52.20;;;;;;5041658;28;20024;-67
2022/04/11 09:31:43;;;;;;;8.18;3.22;;;15.20;57.70;;;;;;5043088;28;20014;-66
2022/04/11 09:34:19;;;;;;;9.02;2.72;;;14.50;50.30;;;;;;5041890;28;20029;-67
2022/04/11 09:36:50;;;;;;;7.57;2.60;;;15.20;59.40;;;;;;5057499;28;20021;-67
2022/04/11 09:39:23;;;;;;;7.20;2.75;;;15.60;51.80;;;;;;5060758;28;20053;-67
2022/04/11 09:41:50;;;;;;;10.38;2.80;;;16.20;54.00;;;;;;5061288;28;20386;-67
2022/04/11 09:44:26;;;;;;;11.20;3.55;;;16.20;51.00;;;;;;5062763;28;20025;-67
2022/04/11 09:47:04;;;;;;;7.90;2.97;;;16.10;53.60;;;;;;5060037;28;20037;-67
2022/04/11 09:49:30;;;;;;;5.72;2.22;;;15.60;49.30;;;;;;5061239;28;20016;-67
2022/04/11 09:52:09;;;;;;;7.10;2.33;;;15.90;47.80;;;;;;5057765;28;20029;-67
2022/04/11 09:54:42;;;;;;;7.03;2.40;;;17.40;48.20;;;;;;5046159;28;20044;-67
2022/04/11 09:57:09;;;;;;;7.50;2.97;;;17.60;43.10;;;;;;5057061;28;20439;-67
2022/04/11 09:59:37;;;;;;;7.45;2.38;;;19.20;39.70;;;;;;5056692;28;20024;-67
2022/04/11 10:02:05;;;;;;;7.68;2.83;;;19.10;41.30;;;;;;5058741;28;20029;-67
2022/04/11 10:04:31;;;;;;;7.63;2.50;;;20.60;39.50;;;;;;5055974;28;20029;-67
2022/04/11 10:06:56;;;;;;;8.68;3.17;;;21.70;43.10;;;;;;5057058;28;20096;-67
2022/04/11 10:09:23;;;;;;;10.73;3.80;;;22.30;40.90;;;;;;5060686;28;20086;-67
2022/04/11 10:11:51;;;;;;;10.55;3.95;;;20.10;35.20;;;;;;5059830;28;20115;-67
2022/04/11 10:14:27;;;;;;;10.13;3.97;;;19.30;36.40;;;;;;5053278;28;20025;-67
2022/04/11 10:17:00;;;;;;;9.63;4.47;;;20.50;38.80;;;;;;5059702;28;20033;-67
2022/04/11 10:19:31;;;;;;;9.55;4.15;;;21.50;38.90;;;;;;5057399;28;20029;-67
2022/04/11 10:22:06;;;;;;;10.15;4.30;;;21.40;37.00;;;;;;5061582;28;20017;-67
2022/04/11 10:24:34;;;;;;;9.73;5.13;;;21.60;36.90;;;;;;5057850;28;20055;-67
2022/04/11 10:27:20;;;;;;;10.93;5.38;;;23.40;40.90;;;;;;5045340;28;20032;-68
2022/04/11 10:29:48;;;;;;;9.40;5.47;;;21.90;32.30;;;;;;5053217;28;20036;-68
2022/04/11 10:32:16;;;;;;;10.50;6.18;;;22.90;36.20;;;;;;5055892;28;20634;-68
2022/04/11 10:34:55;;;;;;;10.23;6.18;;;22.50;30.80;;;;;;5074531;28;20040;-67
2022/04/11 10:37:39;;;;;;;11.73;5.60;;;23.40;37.50;;;;;;5054142;28;20036;-67
2022/04/11 10:40:17;;;;;;;10.82;5.80;;;23.60;35.00;;;;;;5074086;28;20104;-80
2022/04/11 10:43:11;;;;;;;8.93;5.38;;;22.50;35.40;;;;;;5059051;28;20028;-68
2022/04/11 10:45:45;;;;;;;12.50;6.30;;;23.60;34.30;;;;;;5053629;28;20063;-67
2022/04/11 10:48:12;;;;;;;10.98;6.07;;;24.20;34.60;;;;;;5050390;28;20370;-68
2022/04/11 10:50:44;;;;;;;12.25;7.13;;;24.60;33.70;;;;;;5054630;28;20544;-68
2022/04/11 10:53:22;;;;;;;13.60;6.50;;;23.60;31.70;;;;;;5055388;28;20040;-67
2022/04/11 10:55:58;;;;;;;12.80;6.72;;;23.40;32.40;;;;;;5043477;28;20112;-67
2022/04/11 10:58:42;;;;;;;11.38;6.22;;;23.40;33.90;;;;;;5051437;28;20025;-69
2022/04/11 11:01:09;;;;;;;11.38;5.65;;;23.70;35.70;;;;;;5054539;28;20029;-67
2022/04/11 11:03:34;;;;;;;10.98;5.90;;;24.00;33.80;;;;;;5052977;28;20079;-68
2022/04/11 11:06:22;;;;;;;12.40;6.35;;;24.50;35.10;;;;;;5059357;28;20040;-68
2022/04/11 11:08:48;;;;;;;10.32;6.30;;;24.90;33.90;;;;;;5060769;28;20029;-68
2022/04/11 11:11:25;;;;;;;11.30;6.18;;;25.20;35.60;;;;;;5055680;28;20096;-67
2022/04/11 11:13:52;;;;;;;13.05;6.85;;;25.50;32.80;;;;;;5059232;28;20044;-68
2022/04/11 11:16:18;;;;;;;11.45;6.80;;;25.20;31.00;;;;;;5060536;28;20071;-67
2022/04/11 11:18:46;;;;;;;12.60;7.20;;;25.80;33.50;;;;;;5062646;28;20028;-68
2022/04/11 11:21:13;;;;;;;13.38;8.05;;;25.70;30.60;;;;;;5062349;28;20059;-67
2022/04/11 11:23:39;;;;;;;11.75;7.63;;;23.60;33.40;;;;;;5060226;28;20075;-67
2022/04/11 11:26:09;;;;;;;13.18;7.20;;;23.30;33.30;;;;;;5062571;28;20033;-67
2022/04/11 11:28:35;;;;;;;13.35;7.30;;;24.30;36.30;;;;;;5042925;28;20044;-67
2022/04/11 11:31:01;;;;;;;13.50;7.70;;;23.60;32.30;;;;;;5060066;28;20036;-67
2022/04/11 11:33:27;;;;;;;12.27;7.57;;;22.30;31.90;;;;;;5062025;28;20112;-67
2022/04/11 11:35:55;;;;;;;13.15;6.40;;;23.70;33.80;;;;;;5055258;28;20025;-67
2022/04/11 11:38:32;;;;;;;13.00;7.18;;;24.20;36.40;;;;;;5060566;28;20489;-67
2022/04/11 11:41:03;;;;;;;11.85;6.82;;;24.40;30.50;;;;;;5044507;28;20024;-67
2022/04/11 11:43:30;;;;;;;10.98;6.53;;;24.50;33.00;;;;;;5051787;28;20044;-67
2022/04/11 11:46:00;;;;;;;10.93;6.65;;;25.40;34.60;;;;;;5057375;28;20182;-68
2022/04/11 11:48:30;;;;;;;12.27;7.55;;;25.60;35.40;;;;;;5062964;28;20399;-68
2022/04/11 11:50:58;;;;;;;12.60;7.47;;;24.30;30.50;;;;;;5062294;28;20039;-68
2022/04/11 11:53:25;;;;;;;18.55;8.10;;;22.50;29.60;;;;;;5061957;28;20033;-67
2022/04/11 11:55:52;;;;;;;12.55;7.30;;;21.90;33.20;;;;;;5061022;28;20025;-68
2022/04/11 11:58:18;;;;;;;11.65;7.03;;;23.20;34.20;;;;;;5058036;28;20033;-67
2022/04/11 12:00:50;;;;;;;11.68;6.90;;;23.70;37.10;;;;;;5062431;28;20440;-67
2022/04/11 12:06:03;;;;;;;12.88;7.25;;;24.00;35.70;;;;;;5060957;28;20056;-67
2022/04/11 12:08:32;;;;;;;11.48;7.25;;;24.80;35.00;;;;;;5062096;28;20049;-67
2022/04/11 12:11:01;;;;;;;13.73;7.43;;;24.10;33.80;;;;;;5062623;28;20032;-68
2022/04/11 12:13:29;;;;;;;13.02;6.75;;;22.90;31.60;;;;;;5057812;28;20041;-68
2022/04/11 12:16:17;;;;;;;11.07;6.93;;;22.60;33.40;;;;;;5061774;28;20017;-67
2022/04/11 12:19:12;;;;;;;12.98;6.75;;;23.30;36.80;;;;;;5054411;28;20025;-68
2022/04/11 12:21:44;;;;;;;10.95;6.93;;;23.50;35.70;;;;;;5054076;28;20397;-68
2022/04/11 12:24:10;;;;;;;11.68;8.05;;;21.30;33.40;;;;;;5056747;28;20036;-68
2022/04/11 12:26:38;;;;;;;12.32;8.05;;;20.00;33.60;;;;;;5059230;28;20053;-67
2022/04/11 12:29:11;;;;;;;11.73;7.82;;;21.20;37.50;;;;;;5061822;28;20116;-67
2022/04/11 12:31:38;;;;;;;13.65;7.70;;;21.30;37.30;;;;;;5065116;28;20032;-68
2022/04/11 12:34:12;;;;;;;13.68;6.22;;;19.80;37.60;;;;;;5061649;28;20033;-68
2022/04/11 12:36:37;;;;;;;13.05;7.15;;;19.90;36.70;;;;;;5064682;28;20040;-68
2022/04/11 12:39:13;;;;;;;12.05;7.45;;;20.70;37.50;;;;;;5062698;28;20451;-67
2022/04/11 12:41:48;;;;;;;13.68;7.75;;;21.40;37.40;;;;;;5055704;28;20039;-68
2022/04/11 12:44:14;;;;;;;12.85;8.32;;;21.40;36.10;;;;;;5061469;28;20032;-68
2022/04/11 12:46:41;;;;;;;12.45;7.90;;;20.90;36.20;;;;;;5060912;28;20116;-67
2022/04/11 12:49:09;;;;;;;12.73;7.18;;;21.30;37.00;;;;;;5063560;28;20029;-68
2022/04/11 12:51:39;;;;;;;13.48;7.82;;;21.80;36.80;;;;;;5060486;28;20064;-68